Observation data for Goodlett on 03/12/2018      Previous  Date  Next       Current Mesonet Observations  Soil Data  Daily Summary Page  Observations in Plain Language
KGDS 120500Z 36005KT 04/M05 A3035 RMK A01 T00391053  RH  051%=      5-min Rain = 0
KGDS 120505Z 00006KT 04/M05 A3035 RMK A01 T00371054  RH  052%=      5-min Rain = 0
KGDS 120510Z 01007KT 04/M05 A3035 RMK A01 T00361051  RH  054%=      5-min Rain = 0
KGDS 120515Z 01006KT 04/M05 A3035 RMK A01 T00411047  RH  053%=      5-min Rain = 0
KGDS 120520Z 01006KT 04/M05 A3035 RMK A01 T00401049  RH  053%=      5-min Rain = 0
KGDS 120525Z 01007KT 04/M05 A3035 RMK A01 T00361050  RH  054%=      5-min Rain = 0
KGDS 120530Z 01008KT 04/M05 A3035 RMK A01 T00361048  RH  055%=      5-min Rain = 0
KGDS 120535Z 01007KT 04/M05 A3035 RMK A01 T00391046  RH  054%=      5-min Rain = 0
KGDS 120540Z 01007KT 04/M05 A3035 RMK A01 T00401046  RH  054%=      5-min Rain = 0
KGDS 120545Z 01007KT 04/M05 A3035 RMK A01 T00381046  RH  055%=      5-min Rain = 0
KGDS 120550Z 01007KT 04/M05 A3035 RMK A01 T00371047  RH  055%=      5-min Rain = 0
KGDS 120555Z 01007KT 04/M05 A3035 RMK A01 T00361047  RH  055%=      5-min Rain = 0
KGDS 120600Z 01006KT 03/M05 A3036 RMK A01 T00331049  RH  056%=      5-min Rain = 0
KGDS 120605Z 01006KT 03/M05 A3036 RMK A01 T00301049  RH  057%=      5-min Rain = 0
KGDS 120610Z 01007KT 03/M05 A3035 RMK A01 T00271048  RH  058%=      5-min Rain = 0
KGDS 120615Z 01008KT 03/M04 A3035 RMK A01 T00311044  RH  059%=      5-min Rain = 0
KGDS 120620Z 00008KT 04/M04 A3035 RMK A01 T00351043  RH  057%=      5-min Rain = 0
KGDS 120625Z 01008KT 04/M04 A3035 RMK A01 T00361044  RH  057%=      5-min Rain = 0
KGDS 120630Z 01008KT 04/M04 A3035 RMK A01 T00351044  RH  057%=      5-min Rain = 0
KGDS 120635Z 01008KT 03/M04 A3035 RMK A01 T00341044  RH  057%=      5-min Rain = 0
KGDS 120640Z 02007KT 03/M04 A3036 RMK A01 T00341043  RH  058%=      5-min Rain = 0
KGDS 120645Z 01006KT 04/M05 A3036 RMK A01 T00361045  RH  056%=      5-min Rain = 0
KGDS 120650Z 01006KT 03/M05 A3036 RMK A01 T00291048  RH  058%=      5-min Rain = 0
KGDS 120655Z 01006KT 02/M05 A3036 RMK A01 T00241048  RH  060%=      5-min Rain = 0
KGDS 120700Z 01006KT 02/M05 A3036 RMK A01 T00211048  RH  061%=      5-min Rain = 0
KGDS 120705Z 01006KT 02/M05 A3036 RMK A01 T00221045  RH  062%=      5-min Rain = 0
KGDS 120710Z 02007KT 02/M05 A3036 RMK A01 T00221046  RH  061%=      5-min Rain = 0
KGDS 120715Z 02007KT 02/M05 A3036 RMK A01 T00201047  RH  062%=      5-min Rain = 0
KGDS 120720Z 02007KT 02/M05 A3036 RMK A01 T00181048  RH  062%=      5-min Rain = 0
KGDS 120725Z 02006KT 02/M05 A3036 RMK A01 T00161048  RH  063%=      5-min Rain = 0
KGDS 120730Z 02007KT 01/M05 A3036 RMK A01 T00131050  RH  064%=      5-min Rain = 0
KGDS 120735Z 02007KT 01/M05 A3036 RMK A01 T00111049  RH  065%=      5-min Rain = 0
KGDS 120740Z 02007KT 01/M05 A3036 RMK A01 T00121047  RH  065%=      5-min Rain = 0
KGDS 120745Z 02007KT 01/M05 A3036 RMK A01 T00121047  RH  065%=      5-min Rain = 0
KGDS 120750Z 02007KT 01/M05 A3036 RMK A01 T00111047  RH  066%=      5-min Rain = 0
KGDS 120755Z 02007KT 01/M05 A3036 RMK A01 T00101047  RH  066%=      5-min Rain = 0
KGDS 120800Z 02006KT 01/M05 A3036 RMK A01 T00081047  RH  067%=      5-min Rain = 0
KGDS 120805Z 02005KT 01/M05 A3036 RMK A01 T00081046  RH  068%=      5-min Rain = 0
KGDS 120810Z 01005KT 01/M05 A3037 RMK A01 T00081045  RH  068%=      5-min Rain = 0
KGDS 120815Z 01006KT 01/M05 A3036 RMK A01 T00081045  RH  068%=      5-min Rain = 0
KGDS 120820Z 01005KT 01/M04 A3036 RMK A01 T00101043  RH  069%=      5-min Rain = 0
KGDS 120825Z 00005KT 01/M04 A3037 RMK A01 T00101044  RH  068%=      5-min Rain = 0
KGDS 120830Z 00005KT 01/M04 A3036 RMK A01 T00101043  RH  068%=      5-min Rain = 0
KGDS 120835Z 35005KT 01/M04 A3036 RMK A01 T00091044  RH  068%=      5-min Rain = 0
KGDS 120840Z 35005KT 01/M05 A3036 RMK A01 T00071046  RH  069%=      5-min Rain = 0
KGDS 120845Z 33004KT 01/M05 A3036 RMK A01 T00081045  RH  068%=      5-min Rain = 0
KGDS 120850Z 31002KT 01/M05 A3036 RMK A01 T00091048  RH  066%=      5-min Rain = 0
KGDS 120855Z 29003KT 00/M05 A3036 RMK A01 T00021052  RH  068%=      5-min Rain = 0
KGDS 120900Z 31004KT 00/05 A3036 RMK A01 T00000-48  RH  071%=      5-min Rain = 0
KGDS 120905Z 33006KT 00/M05 A3036 RMK A01 T00031046  RH  071%=      5-min Rain = 0
KGDS 120910Z 33005KT 01/M04 A3036 RMK A01 T00061044  RH  070%=      5-min Rain = 0
KGDS 120915Z 32005KT 01/M05 A3036 RMK A01 T00051047  RH  069%=      5-min Rain = 0
KGDS 120920Z 29005KT 00/M05 A3037 RMK A01 T00031048  RH  069%=      5-min Rain = 0
KGDS 120925Z 28004KT 00/05 A3037 RMK A01 T00000-49  RH  070%=      5-min Rain = 0
KGDS 120930Z 31006KT 00/M05 A3037 RMK A01 T00031045  RH  071%=      5-min Rain = 0
KGDS 120935Z 32006KT 00/M05 A3037 RMK A01 T00041047  RH  069%=      5-min Rain = 0
KGDS 120940Z 33006KT 01/M05 A3037 RMK A01 T00051045  RH  070%=      5-min Rain = 0
KGDS 120945Z 33005KT 01/M05 A3037 RMK A01 T00061045  RH  069%=      5-min Rain = 0
KGDS 120950Z 32005KT 01/M05 A3037 RMK A01 T00061045  RH  070%=      5-min Rain = 0
KGDS 120955Z 32006KT 01/M05 A3037 RMK A01 T00061045  RH  070%=      5-min Rain = 0
KGDS 121000Z 32006KT 00/M05 A3037 RMK A01 T00041046  RH  070%=      5-min Rain = 0
KGDS 121005Z 32006KT 00/M05 A3037 RMK A01 T00031046  RH  070%=      5-min Rain = 0
KGDS 121010Z 33006KT 00/M05 A3037 RMK A01 T00041046  RH  070%=      5-min Rain = 0
KGDS 121015Z 34005KT 00/M05 A3037 RMK A01 T00031045  RH  071%=      5-min Rain = 0
KGDS 121020Z 33005KT 00/M05 A3037 RMK A01 T00011046  RH  071%=      5-min Rain = 0
KGDS 121025Z 34005KT 00/M04 A3037 RMK A01 T00021044  RH  072%=      5-min Rain = 0
KGDS 121030Z 34006KT 00/M05 A3037 RMK A01 T00021045  RH  072%=      5-min Rain = 0
KGDS 121035Z 33006KT 00/M05 A3037 RMK A01 T00011045  RH  072%=      5-min Rain = 0
KGDS 121040Z 33006KT 00/05 A3037 RMK A01 T00000-45  RH  072%=      5-min Rain = 0
KGDS 121045Z 34006KT 00/M04 A3037 RMK A01 T00011044  RH  073%=      5-min Rain = 0
KGDS 121050Z 34006KT 00/05 A3037 RMK A01 T00000-45  RH  073%=      5-min Rain = 0
KGDS 121055Z 34006KT M00/M05 A3037 RMK A01 T10031047  RH  073%=      5-min Rain = 0
KGDS 121100Z 34005KT M00/M05 A3037 RMK A01 T10031046  RH  073%=      5-min Rain = 0
KGDS 121105Z 34006KT M00/M04 A3037 RMK A01 T10021044  RH  074%=      5-min Rain = 0
KGDS 121110Z 35007KT M00/M04 A3037 RMK A01 T10021043  RH  075%=      5-min Rain = 0
KGDS 121115Z 35007KT 00/04 A3037 RMK A01 T00-00-42  RH  075%=      5-min Rain = 0
KGDS 121120Z 00008KT 00/04 A3037 RMK A01 T00000-41  RH  075%=      5-min Rain = 0
KGDS 121125Z 00007KT 00/04 A3037 RMK A01 T00000-41  RH  075%=      5-min Rain = 0
KGDS 121130Z 00007KT M00/M04 A3038 RMK A01 T10011041  RH  075%=      5-min Rain = 0
KGDS 121135Z 35007KT M00/M04 A3038 RMK A01 T10011040  RH  076%=      5-min Rain = 0
KGDS 121140Z 34006KT M00/M04 A3038 RMK A01 T10011040  RH  076%=      5-min Rain = 0
KGDS 121145Z 33007KT 00/04 A3038 RMK A01 T00000-40  RH  075%=      5-min Rain = 0
KGDS 121150Z 33007KT 00/04 A3038 RMK A01 T00-00-40  RH  075%=      5-min Rain = 0
KGDS 121155Z 35006KT 00/M04 A3038 RMK A01 T00011039  RH  075%=      5-min Rain = 0
KGDS 121200Z 35006KT 00/04 A3038 RMK A01 T00-00-40  RH  075%=      5-min Rain = 0
KGDS 121205Z 34006KT M00/M04 A3038 RMK A01 T10021041  RH  076%=      5-min Rain = 0
KGDS 121210Z 34006KT M00/M04 A3038 RMK A01 T10031042  RH  076%=      5-min Rain = 0
KGDS 121215Z 34007KT M01/M05 A3038 RMK A01 T10061046  RH  075%=      5-min Rain = 0
KGDS 121220Z 33007KT M01/M05 A3038 RMK A01 T10101049  RH  076%=      5-min Rain = 0
KGDS 121225Z 33007KT M01/M05 A3038 RMK A01 T10111050  RH  076%=      5-min Rain = 0
KGDS 121230Z 33007KT M01/M05 A3039 RMK A01 T10121050  RH  076%=      5-min Rain = 0
KGDS 121235Z 32006KT M01/M05 A3039 RMK A01 T10111049  RH  076%=      5-min Rain = 0
KGDS 121240Z 31006KT M01/M05 A3039 RMK A01 T10111050  RH  076%=      5-min Rain = 0
KGDS 121245Z 30006KT M01/M05 A304 RMK A01 T10131051  RH  076%=      5-min Rain = 0
KGDS 121250Z 28007KT M02/M05 A304 RMK A01 T10161053  RH  077%=      5-min Rain = 0
KGDS 121255Z 28007KT M02/M05 A304 RMK A01 T10161051  RH  078%=      5-min Rain = 0
KGDS 121300Z 30005KT M02/M05 A304 RMK A01 T10161051  RH  078%=      5-min Rain = 0
KGDS 121305Z 30007KT M02/M05 A304 RMK A01 T10151050  RH  078%=      5-min Rain = 0
KGDS 121310Z 29009KT M01/M05 A304 RMK A01 T10111047  RH  077%=      5-min Rain = 0
KGDS 121315Z 29008KT M01/M05 A304 RMK A01 T10111048  RH  077%=      5-min Rain = 0
KGDS 121320Z 29008KT M01/M05 A304 RMK A01 T10111048  RH  077%=      5-min Rain = 0
KGDS 121325Z 30008KT M01/M05 A304 RMK A01 T10091046  RH  077%=      5-min Rain = 0
KGDS 121330Z 30008KT M01/M04 A3041 RMK A01 T10051044  RH  076%=      5-min Rain = 0
KGDS 121335Z 31007KT M00/M04 A304 RMK A01 T10011041  RH  075%=      5-min Rain = 0
KGDS 121340Z 32007KT 00/M04 A3041 RMK A01 T00041040  RH  074%=      5-min Rain = 0
KGDS 121345Z 32007KT 01/M04 A3041 RMK A01 T00071039  RH  073%=      5-min Rain = 0
KGDS 121350Z 32007KT 01/M04 A3042 RMK A01 T00091039  RH  071%=      5-min Rain = 0
KGDS 121355Z 32007KT 01/M04 A3042 RMK A01 T00111038  RH  071%=      5-min Rain = 0
KGDS 121400Z 33006KT 02/M04 A3042 RMK A01 T00161035  RH  069%=      5-min Rain = 0
KGDS 121405Z 33006KT 02/M04 A3042 RMK A01 T00191035  RH  068%=      5-min Rain = 0
KGDS 121410Z 33006KT 02/M03 A3042 RMK A01 T00221034  RH  067%=      5-min Rain = 0
KGDS 121415Z 33006KT 03/M03 A3043 RMK A01 T00251033  RH  066%=      5-min Rain = 0
KGDS 121420Z 34006KT 03/M03 A3043 RMK A01 T00281031  RH  066%=      5-min Rain = 0
KGDS 121425Z 36007KT 03/M03 A3042 RMK A01 T00321028  RH  065%=      5-min Rain = 0
KGDS 121430Z 36008KT 04/M03 A3043 RMK A01 T00361027  RH  065%=      5-min Rain = 0
KGDS 121435Z 00008KT 04/M03 A3043 RMK A01 T00391026  RH  063%=      5-min Rain = 0
KGDS 121440Z 36008KT 04/M03 A3043 RMK A01 T00411026  RH  062%=      5-min Rain = 0
KGDS 121445Z 35007KT 04/M03 A3043 RMK A01 T00441025  RH  062%=      5-min Rain = 0
KGDS 121450Z 35008KT 05/M03 A3043 RMK A01 T00451026  RH  061%=      5-min Rain = 0
KGDS 121455Z 33006KT 05/M03 A3043 RMK A01 T00461026  RH  060%=      5-min Rain = 0
KGDS 121500Z 34006KT 05/M03 A3043 RMK A01 T00491025  RH  059%=      5-min Rain = 0
KGDS 121505Z 01006KT 05/M03 A3043 RMK A01 T00491027  RH  059%=      5-min Rain = 0
KGDS 121510Z 35005KT 05/M03 A3043 RMK A01 T00501026  RH  059%=      5-min Rain = 0
KGDS 121515Z 36004KT 05/M03 A3043 RMK A01 T00521026  RH  058%=      5-min Rain = 0
KGDS 121520Z 34006KT 06/M03 A3043 RMK A01 T00571025  RH  056%=      5-min Rain = 0
KGDS 121525Z 34004KT 06/M03 A3043 RMK A01 T00561026  RH  056%=      5-min Rain = 0
KGDS 121530Z 32005KT 06/M03 A3043 RMK A01 T00591026  RH  055%=      5-min Rain = 0
KGDS 121535Z 35004KT 06/M03 A3043 RMK A01 T00591027  RH  055%=      5-min Rain = 0
KGDS 121540Z 35004KT 06/M03 A3043 RMK A01 T00631027  RH  053%=      5-min Rain = 0
KGDS 121545Z 00004KT 06/M03 A3043 RMK A01 T00621029  RH  053%=      5-min Rain = 0
KGDS 121550Z 01003G8KT 07/M03 A3043 RMK A01 T00681027  RH  051%=      5-min Rain = 0
KGDS 121555Z 36004KT 07/M03 A3043 RMK A01 T00711031  RH  049%=      5-min Rain = 0
KGDS 121600Z 03005KT 07/M04 A3043 RMK A01 T00741035  RH  047%=      5-min Rain = 0
KGDS 121605Z 05005KT 07/M04 A3043 RMK A01 T00721038  RH  046%=      5-min Rain = 0
KGDS 121610Z 03004G11KT 07/M04 A3043 RMK A01 T00741035  RH  046%=      5-min Rain = 0
KGDS 121615Z 35006KT 07/M04 A3043 RMK A01 T00741042  RH  044%=      5-min Rain = 0
KGDS 121620Z 02003KT 07/M04 A3043 RMK A01 T00741043  RH  044%=      5-min Rain = 0
KGDS 121625Z 03004KT 08/M04 A3043 RMK A01 T00811043  RH  042%=      5-min Rain = 0
KGDS 121630Z 01006KT 08/M05 A3043 RMK A01 T00801046  RH  041%=      5-min Rain = 0
KGDS 121635Z 02002KT 08/M04 A3043 RMK A01 T00801042  RH  042%=      5-min Rain = 0
KGDS 121640Z 03002G8KT 09/M05 A3043 RMK A01 T00861045  RH  040%=      5-min Rain = 0
KGDS 121645Z 00006KT 08/M05 A3043 RMK A01 T00841052  RH  038%=      5-min Rain = 0
KGDS 121650Z 03004KT 09/M05 A3043 RMK A01 T00851050  RH  038%=      5-min Rain = 0
KGDS 121655Z 04003KT 09/M05 A3043 RMK A01 T00901049  RH  037%=      5-min Rain = 0
KGDS 121700Z 03004KT 09/M05 A3043 RMK A01 T00921049  RH  037%=      5-min Rain = 0
KGDS 121705Z 02004KT 09/M05 A3043 RMK A01 T00921049  RH  037%=      5-min Rain = 0
KGDS 121710Z 00003G9KT 10/M05 A3043 RMK A01 T00951052  RH  036%=      5-min Rain = 0
KGDS 121715Z 02004KT 10/M05 A3042 RMK A01 T00981053  RH  035%=      5-min Rain = 0
KGDS 121720Z 05003G8KT 10/M06 A3042 RMK A01 T00961055  RH  035%=      5-min Rain = 0
KGDS 121725Z 03004G9KT 10/M06 A3042 RMK A01 T01011056  RH  033%=      5-min Rain = 0
KGDS 121730Z 07004KT 10/M06 A3042 RMK A01 T00961056  RH  034%=      5-min Rain = 0
KGDS 121735Z 06004G9KT 10/M05 A3042 RMK A01 T01011054  RH  034%=      5-min Rain = 0
KGDS 121740Z 08003G8KT 10/M06 A3041 RMK A01 T01011055  RH  033%=      5-min Rain = 0
KGDS 121745Z 09003KT 10/M05 A3041 RMK A01 T01041050  RH  034%=      5-min Rain = 0
KGDS 121750Z 07003G9KT 11/M05 A304 RMK A01 T01061050  RH  033%=      5-min Rain = 0
KGDS 121755Z 01005G12KT 11/M05 A304 RMK A01 T01051050  RH  034%=      5-min Rain = 0
KGDS 121800Z 06003KT 11/M05 A304 RMK A01 T01061049  RH  034%=      5-min Rain = 0
KGDS 121805Z 09002G8KT 11/M05 A3039 RMK A01 T01101050  RH  032%=      5-min Rain = 0
KGDS 121810Z 05005KT 11/M05 A3039 RMK A01 T01111051  RH  032%=      5-min Rain = 0
KGDS 121815Z 00004G9KT 11/M05 A3038 RMK A01 T01101052  RH  032%=      5-min Rain = 0
KGDS 121820Z 00004G9KT 11/M05 A3038 RMK A01 T01101053  RH  032%=      5-min Rain = 0
KGDS 121825Z 05004G10KT 11/M05 A3038 RMK A01 T01141052  RH  031%=      5-min Rain = 0
KGDS 121830Z 06006G12KT 11/M05 A3037 RMK A01 T01141054  RH  031%=      5-min Rain = 0
KGDS 121835Z 02009G14KT 12/M06 A3037 RMK A01 T01191056  RH  029%=      5-min Rain = 0
KGDS 121840Z 04003KT 11/M06 A3037 RMK A01 T01141057  RH  030%=      5-min Rain = 0
KGDS 121845Z 09004G9KT 12/M06 A3036 RMK A01 T01181055  RH  030%=      5-min Rain = 0
KGDS 121850Z 05006G11KT 12/M05 A3036 RMK A01 T01211054  RH  029%=      5-min Rain = 0
KGDS 121855Z 06009KT 12/M05 A3036 RMK A01 T01181053  RH  030%=      5-min Rain = 0
KGDS 121900Z 07005KT 12/M05 A3036 RMK A01 T01171053  RH  030%=      5-min Rain = 0
KGDS 121905Z 02002KT 12/M05 A3035 RMK A01 T01191054  RH  030%=      5-min Rain = 0
KGDS 121910Z 02003G8KT 12/M05 A3035 RMK A01 T01211053  RH  030%=      5-min Rain = 0
KGDS 121915Z 01003G8KT 12/M05 A3035 RMK A01 T01211053  RH  030%=      5-min Rain = 0
KGDS 121920Z 07007KT 13/M05 A3034 RMK A01 T01251051  RH  029%=      5-min Rain = 0
KGDS 121925Z 04004KT 12/M05 A3034 RMK A01 T01221052  RH  030%=      5-min Rain = 0
KGDS 121930Z 08006KT 13/M05 A3034 RMK A01 T01261051  RH  029%=      5-min Rain = 0
KGDS 121935Z 06004KT 13/M05 A3034 RMK A01 T01251052  RH  029%=      5-min Rain = 0
KGDS 121940Z 03004KT 13/M05 A3033 RMK A01 T01261052  RH  029%=      5-min Rain = 0
KGDS 121945Z 01003G8KT 13/M05 A3033 RMK A01 T01321049  RH  028%=      5-min Rain = 0
KGDS 121950Z 05005KT 13/M05 A3033 RMK A01 T01341050  RH  028%=      5-min Rain = 0
KGDS 121955Z 05006KT 13/M05 A3032 RMK A01 T01341051  RH  028%=      5-min Rain = 0
KGDS 122000Z 06005KT 13/M05 A3032 RMK A01 T01311054  RH  028%=      5-min Rain = 0
KGDS 122005Z 01004KT 13/M05 A3032 RMK A01 T01321053  RH  027%=      5-min Rain = 0
KGDS 122010Z 07003G8KT 14/M05 A3031 RMK A01 T01371051  RH  027%=      5-min Rain = 0
KGDS 122015Z 11006KT 13/M06 A3031 RMK A01 T01331055  RH  027%=      5-min Rain = 0
KGDS 122020Z 18003KT 14/M05 A3031 RMK A01 T01361052  RH  027%=      5-min Rain = 0
KGDS 122025Z 12002KT 14/M05 A303 RMK A01 T01411052  RH  026%=      5-min Rain = 0
KGDS 122030Z 15003KT 14/M05 A303 RMK A01 T01431051  RH  026%=      5-min Rain = 0
KGDS 122035Z 12006KT 14/M05 A303 RMK A01 T01431050  RH  026%=      5-min Rain = 0
KGDS 122040Z 13005KT 15/M05 A3029 RMK A01 T01451050  RH  026%=      5-min Rain = 0
KGDS 122045Z 05003KT 15/M05 A3029 RMK A01 T01451052  RH  025%=      5-min Rain = 0
KGDS 122050Z 02004KT 14/M06 A3029 RMK A01 T01391055  RH  026%=      5-min Rain = 0
KGDS 122055Z 03004G9KT 14/M05 A3029 RMK A01 T01421054  RH  026%=      5-min Rain = 0
KGDS 122100Z 07004KT 15/M06 A3029 RMK A01 T01471055  RH  025%=      5-min Rain = 0
KGDS 122105Z 02001KT 15/M06 A3029 RMK A01 T01451056  RH  025%=      5-min Rain = 0
KGDS 122110Z 14003KT 15/M05 A3028 RMK A01 T01501053  RH  024%=      5-min Rain = 0
KGDS 122115Z 04004KT 15/M06 A3029 RMK A01 T01501055  RH  024%=      5-min Rain = 0
KGDS 122120Z 08006KT 14/M06 A3028 RMK A01 T01431056  RH  025%=      5-min Rain = 0
KGDS 122125Z 08005KT 14/M06 A3028 RMK A01 T01421057  RH  025%=      5-min Rain = 0
KGDS 122130Z 17001KT 15/M06 A3028 RMK A01 T01451056  RH  025%=      5-min Rain = 0
KGDS 122135Z 13003G8KT 15/M06 A3028 RMK A01 T01511055  RH  024%=      5-min Rain = 0
KGDS 122140Z 11006KT 15/M06 A3027 RMK A01 T01501057  RH  024%=      5-min Rain = 0
KGDS 122145Z 13004KT 15/M06 A3027 RMK A01 T01461060  RH  024%=      5-min Rain = 0
KGDS 122150Z 12005KT 15/M06 A3026 RMK A01 T01471061  RH  024%=      5-min Rain = 0
KGDS 122155Z 13005KT 15/M06 A3026 RMK A01 T01481062  RH  023%=      5-min Rain = 0
KGDS 122200Z 13006KT 15/M06 A3026 RMK A01 T01501061  RH  023%=      5-min Rain = 0
KGDS 122205Z 11005KT 15/M06 A3026 RMK A01 T01471062  RH  023%=      5-min Rain = 0
KGDS 122210Z 04004KT 15/M06 A3025 RMK A01 T01481062  RH  023%=      5-min Rain = 0
KGDS 122215Z 36004KT 15/M06 A3025 RMK A01 T01491063  RH  023%=      5-min Rain = 0
KGDS 122220Z 06005G10KT 15/M06 A3025 RMK A01 T01501061  RH  023%=      5-min Rain = 0
KGDS 122225Z 08006KT 15/M06 A3025 RMK A01 T01481061  RH  023%=      5-min Rain = 0
KGDS 122230Z 09006KT 15/M06 A3025 RMK A01 T01501061  RH  023%=      5-min Rain = 0
KGDS 122235Z 05005KT 15/M06 A3024 RMK A01 T01471062  RH  023%=      5-min Rain = 0
KGDS 122240Z 04002KT 15/M06 A3024 RMK A01 T01471063  RH  023%=      5-min Rain = 0
KGDS 122245Z 17004KT 15/M06 A3024 RMK A01 T01501064  RH  023%=      5-min Rain = 0
KGDS 122250Z 12004KT 15/M06 A3024 RMK A01 T01511064  RH  022%=      5-min Rain = 0
KGDS 122255Z 10006KT 15/M07 A3023 RMK A01 T01491066  RH  022%=      5-min Rain = 0
KGDS 122300Z 11006KT 15/M07 A3023 RMK A01 T01481067  RH  022%=      5-min Rain = 0
KGDS 122305Z 09005KT 15/M07 A3023 RMK A01 T01461067  RH  022%=      5-min Rain = 0
KGDS 122310Z 14004KT 15/M07 A3023 RMK A01 T01481068  RH  022%=      5-min Rain = 0
KGDS 122315Z 10004KT 15/M07 A3022 RMK A01 T01481065  RH  023%=      5-min Rain = 0
KGDS 122320Z 10005KT 15/M06 A3022 RMK A01 T01461063  RH  023%=      5-min Rain = 0
KGDS 122325Z 07006KT 15/M06 A3022 RMK A01 T01451061  RH  024%=      5-min Rain = 0
KGDS 122330Z 08008KT 15/M06 A3022 RMK A01 T01451061  RH  024%=      5-min Rain = 0
KGDS 122335Z 10005KT 14/M06 A3022 RMK A01 T01441061  RH  024%=      5-min Rain = 0
KGDS 122340Z 09006KT 14/M06 A3022 RMK A01 T01441061  RH  024%=      5-min Rain = 0
KGDS 122345Z 08007KT 14/M06 A3022 RMK A01 T01421062  RH  024%=      5-min Rain = 0
KGDS 122350Z 09005KT 14/M06 A3023 RMK A01 T01411062  RH  024%=      5-min Rain = 0
KGDS 122355Z 07006KT 14/M06 A3023 RMK A01 T01391063  RH  024%=      5-min Rain = 0
KGDS 130000Z 07007KT 14/M06 A3022 RMK A01 T01381064  RH  024%=      5-min Rain = 0
KGDS 130005Z 09006KT 14/M06 A3022 RMK A01 T01391064  RH  024%=      5-min Rain = 0
KGDS 130010Z 08006KT 14/M06 A3022 RMK A01 T01381064  RH  024%=      5-min Rain = 0
KGDS 130015Z 08006KT 14/M07 A3023 RMK A01 T01361065  RH  024%=      5-min Rain = 0
KGDS 130020Z 08006KT 13/M07 A3023 RMK A01 T01341066  RH  025%=      5-min Rain = 0
KGDS 130025Z 08007KT 13/M07 A3023 RMK A01 T01311067  RH  025%=      5-min Rain = 0
KGDS 130030Z 08006KT 13/M07 A3023 RMK A01 T01261068  RH  025%=      5-min Rain = 0
KGDS 130035Z 08007KT 12/M07 A3023 RMK A01 T01211069  RH  026%=      5-min Rain = 0
KGDS 130040Z 08006KT 12/M07 A3023 RMK A01 T01161071  RH  027%=      5-min Rain = 0
KGDS 130045Z 08007KT 11/M07 A3023 RMK A01 T01121072  RH  027%=      5-min Rain = 0
KGDS 130050Z 08007KT 11/M07 A3023 RMK A01 T01081072  RH  028%=      5-min Rain = 0
KGDS 130055Z 08008KT 11/M07 A3023 RMK A01 T01051072  RH  028%=      5-min Rain = 0
KGDS 130100Z 08008KT 10/M07 A3024 RMK A01 T01031071  RH  029%=      5-min Rain = 0
KGDS 130105Z 09008KT 10/M07 A3024 RMK A01 T01011071  RH  029%=      5-min Rain = 0
KGDS 130110Z 09008KT 10/M07 A3024 RMK A01 T00971070  RH  031%=      5-min Rain = 0
KGDS 130115Z 10008KT 10/M07 A3024 RMK A01 T00961066  RH  032%=      5-min Rain = 0
KGDS 130120Z 10008KT 10/M06 A3024 RMK A01 T00971063  RH  032%=      5-min Rain = 0
KGDS 130125Z 10008KT 10/M06 A3024 RMK A01 T00951063  RH  033%=      5-min Rain = 0
KGDS 130130Z 10007KT 09/M06 A3024 RMK A01 T00911064  RH  033%=      5-min Rain = 0
KGDS 130135Z 10008KT 09/M06 A3024 RMK A01 T00881064  RH  034%=      5-min Rain = 0
KGDS 130140Z 10008KT 09/M06 A3024 RMK A01 T00871063  RH  034%=      5-min Rain = 0
KGDS 130145Z 11008KT 09/M06 A3024 RMK A01 T00861064  RH  034%=      5-min Rain = 0
KGDS 130150Z 11008KT 08/M06 A3024 RMK A01 T00841064  RH  035%=      5-min Rain = 0
KGDS 130155Z 11008KT 08/M07 A3024 RMK A01 T00821066  RH  035%=      5-min Rain = 0
KGDS 130200Z 11008KT 08/M07 A3024 RMK A01 T00781067  RH  035%=      5-min Rain = 0
KGDS 130205Z 11008KT 08/M07 A3025 RMK A01 T00761065  RH  036%=      5-min Rain = 0
KGDS 130210Z 11008KT 08/M06 A3025 RMK A01 T00751064  RH  037%=      5-min Rain = 0
KGDS 130215Z 11008KT 07/M06 A3025 RMK A01 T00731064  RH  038%=      5-min Rain = 0
KGDS 130220Z 11008KT 08/M06 A3025 RMK A01 T00751061  RH  038%=      5-min Rain = 0
KGDS 130225Z 11008KT 08/M06 A3025 RMK A01 T00771062  RH  037%=      5-min Rain = 0
KGDS 130230Z 11008KT 07/M06 A3025 RMK A01 T00741064  RH  037%=      5-min Rain = 0
KGDS 130235Z 11008KT 07/M06 A3025 RMK A01 T00721063  RH  038%=      5-min Rain = 0
KGDS 130240Z 11009KT 07/M06 A3025 RMK A01 T00721061  RH  039%=      5-min Rain = 0
KGDS 130245Z 11008KT 07/M06 A3025 RMK A01 T00731059  RH  039%=      5-min Rain = 0
KGDS 130250Z 11008KT 07/M06 A3025 RMK A01 T00741059  RH  039%=      5-min Rain = 0
KGDS 130255Z 11008KT 07/M06 A3025 RMK A01 T00731059  RH  039%=      5-min Rain = 0
KGDS 130300Z 12008KT 07/M06 A3025 RMK A01 T00711058  RH  040%=      5-min Rain = 0
KGDS 130305Z 13007KT 07/M06 A3025 RMK A01 T00681061  RH  040%=      5-min Rain = 0
KGDS 130310Z 13006KT 06/M06 A3025 RMK A01 T00621064  RH  041%=      5-min Rain = 0
KGDS 130315Z 12007KT 06/M06 A3025 RMK A01 T00611062  RH  041%=      5-min Rain = 0
KGDS 130320Z 12007KT 06/M06 A3025 RMK A01 T00621061  RH  041%=      5-min Rain = 0
KGDS 130325Z 11007KT 06/M06 A3025 RMK A01 T00621060  RH  042%=      5-min Rain = 0
KGDS 130330Z 11008KT 06/M06 A3025 RMK A01 T00631059  RH  042%=      5-min Rain = 0
KGDS 130335Z 11008KT 07/M06 A3025 RMK A01 T00671058  RH  041%=      5-min Rain = 0
KGDS 130340Z 11008KT 07/M06 A3025 RMK A01 T00661059  RH  041%=      5-min Rain = 0
KGDS 130345Z 12008KT 07/M06 A3025 RMK A01 T00651059  RH  041%=      5-min Rain = 0
KGDS 130350Z 12007KT 07/M06 A3025 RMK A01 T00651058  RH  042%=      5-min Rain = 0
KGDS 130355Z 12007KT 06/M06 A3025 RMK A01 T00631059  RH  042%=      5-min Rain = 0
KGDS 130400Z 12007KT 06/M06 A3025 RMK A01 T00611060  RH  042%=      5-min Rain = 0
KGDS 130405Z 12007KT 06/M06 A3025 RMK A01 T00601060  RH  042%=      5-min Rain = 0
KGDS 130410Z 12007KT 06/M06 A3025 RMK A01 T00591060  RH  042%=      5-min Rain = 0
KGDS 130415Z 13007KT 06/M06 A3026 RMK A01 T00591061  RH  042%=      5-min Rain = 0
KGDS 130420Z 13007KT 06/M06 A3026 RMK A01 T00571061  RH  043%=      5-min Rain = 0
KGDS 130425Z 13007KT 06/M06 A3026 RMK A01 T00551062  RH  043%=      5-min Rain = 0
KGDS 130430Z 15006KT 05/M06 A3026 RMK A01 T00531063  RH  043%=      5-min Rain = 0
KGDS 130435Z 15006KT 06/M06 A3026 RMK A01 T00561061  RH  043%=      5-min Rain = 0
KGDS 130440Z 14006KT 06/M06 A3026 RMK A01 T00591061  RH  042%=      5-min Rain = 0
KGDS 130445Z 15005KT 06/M06 A3026 RMK A01 T00581062  RH  042%=      5-min Rain = 0
KGDS 130450Z 15005KT 06/M06 A3026 RMK A01 T00591062  RH  042%=      5-min Rain = 0
KGDS 130455Z 16005KT 06/M06 A3026 RMK A01 T00591061  RH  042%=      5-min Rain = 0

Page generated in 0.0124 seconds.